Time;durP1;ratioP1;P1;durP2;ratioP2;P2;SDS_P1;SDS_P2;PMS_P1;PMS_P2;Temp;Humidity;BMP_temperature;BMP_pressure;BME280_temperature;BME280_humidity;BME280_pressure;Samples;Min_cycle;Max_cycle;Signal;HPM_P1;HPM_P2
2023/10/02 00:05:07;;;;;;;53.80;19.50;;;;;;;13.95;63.46;93704.09;2023059;71;20156;-73
2023/10/02 00:07:37;;;;;;;52.63;19.50;;;;;;;13.92;63.26;93699.66;2026007;70;20152;-73
2023/10/02 00:10:08;;;;;;;55.45;20.05;;;;;;;13.92;63.35;93704.56;2025935;70;20648;-74
2023/10/02 00:12:34;;;;;;;53.92;20.10;;;;;;;13.91;62.98;93711.59;2025745;70;20188;-74
2023/10/02 00:15:11;;;;;;;56.92;20.17;;;;;;;13.91;62.70;93703.09;2026190;70;20244;-72
2023/10/02 00:17:37;;;;;;;57.75;20.50;;;;;;;13.84;63.19;93701.25;2025151;71;20185;-72
2023/10/02 00:20:13;;;;;;;54.97;19.20;;;;;;;13.84;63.67;93701.25;2026091;70;20252;-72
2023/10/02 00:22:43;;;;;;;56.45;20.17;;;;;;;13.77;64.09;93702.19;2025513;70;20181;-73
2023/10/02 00:25:09;;;;;;;52.38;19.35;;;;;;;13.82;63.46;93704.66;2025782;70;20649;-72
2023/10/02 00:27:37;;;;;;;57.67;20.58;;;;;;;13.59;64.80;93701.72;2025699;70;20626;-72
2023/10/02 00:30:07;;;;;;;54.83;18.60;;;;;;;13.66;64.42;93704.34;2025995;70;20149;-73
2023/10/02 00:32:34;;;;;;;55.85;19.45;;;;;;;13.55;64.80;93710.69;2025948;70;20149;-73
2023/10/02 00:35:03;;;;;;;55.10;19.30;;;;;;;13.53;64.71;93713.38;2025191;70;20252;-73
2023/10/02 00:38:04;;;;;;;54.03;19.38;;;;;;;13.52;64.67;93711.91;2022745;71;20608;-73
2023/10/02 00:40:30;;;;;;;;;;;;;;;13.57;64.41;93712.91;2025474;70;20594;-75
2023/10/02 00:42:58;;;;;;;53.45;19.40;;;;;;;13.61;64.44;93707.53;2025233;71;20041;-72
2023/10/02 00:45:29;;;;;;;53.17;19.83;;;;;;;13.54;65.04;93714.13;2025736;71;20185;-73
2023/10/02 00:48:37;;;;;;;52.75;18.48;;;;;;;13.52;64.81;93709.09;2025845;70;20249;-72
2023/10/02 00:50:58;;;;;;;49.38;18.30;;;;;;;13.51;64.33;93716.06;2026712;70;20173;-72
2023/10/02 00:53:45;;;;;;;53.28;19.02;;;;;;;13.46;64.39;93715.06;2025124;71;20169;-73
2023/10/02 00:56:24;;;;;;;50.03;18.17;;;;;;;13.40;65.43;93711.84;2025055;71;20161;-72
2023/10/02 00:59:00;;;;;;;52.38;18.60;;;;;;;13.32;65.69;93710.56;2025358;70;20247;-72
2023/10/02 01:01:31;;;;;;;53.47;18.65;;;;;;;13.33;64.53;93707.13;2025356;71;20217;-72
2023/10/02 01:04:11;;;;;;;58.00;19.52;;;;;;;13.36;64.75;93708.75;2025465;71;20153;-72
2023/10/02 01:09:26;;;;;;;51.97;19.02;;;;;;;13.26;64.16;93693.19;2025674;71;20145;-73
2023/10/02 01:12:01;;;;;;;51.90;19.08;;;;;;;13.26;65.09;93702.41;2026291;70;20156;-75
2023/10/02 01:17:14;;;;;;;55.55;18.50;;;;;;;13.16;64.98;93704.53;2025843;70;20245;-73
2023/10/02 01:19:57;;;;;;;52.60;18.35;;;;;;;13.23;64.75;93698.69;2025908;70;20171;-73
2023/10/02 01:22:28;;;;;;;;;;;;;;;13.22;64.81;93702.13;2025908;71;20164;-73
2023/10/02 01:25:13;;;;;;;51.35;18.80;;;;;;;13.14;64.77;93695.91;2025794;70;20518;-73
2023/10/02 01:27:50;;;;;;;51.20;18.40;;;;;;;13.07;66.08;93697.59;2026145;70;20664;-72
2023/10/02 01:30:22;;;;;;;52.47;18.75;;;;;;;13.00;66.23;93697.78;2025644;71;20191;-73
2023/10/02 01:35:46;;;;;;;52.95;18.52;;;;;;;12.95;65.64;93691.09;2025630;71;20153;-73
2023/10/02 01:38:15;;;;;;;51.13;18.60;;;;;;;12.87;66.48;93694.13;2026277;70;20156;-72
2023/10/02 01:40:42;;;;;;;53.35;18.20;;;;;;;13.03;65.64;93702.22;2023375;71;20224;-72
2023/10/02 01:43:14;;;;;;;50.58;18.42;;;;;;;12.93;65.96;93699.47;2022232;71;20173;-74
2023/10/02 01:45:45;;;;;;;48.22;18.30;;;;;;;12.84;65.84;93688.94;2024768;71;20162;-73
2023/10/02 01:48:15;;;;;;;47.70;17.80;;;;;;;12.84;66.10;93684.03;2023110;70;20245;-72
2023/10/02 01:50:45;;;;;;;54.47;18.27;;;;;;;12.73;66.54;93693.88;2022682;71;20161;-72
2023/10/02 01:53:29;;;;;;;55.53;18.25;;;;;;;12.75;66.42;93681.25;2025845;70;20141;-74
2023/10/02 01:56:16;;;;;;;49.33;17.73;;;;;;;12.87;65.99;93690.56;2026320;70;20164;-73
2023/10/02 01:58:44;;;;;;;49.65;16.98;;;;;;;12.73;66.48;93674.09;2025108;71;20598;-73
2023/10/02 02:01:11;;;;;;;52.63;18.17;;;;;;;12.77;66.40;93679.31;2023011;71;20149;-73
2023/10/02 02:03:42;;;;;;;48.45;17.00;;;;;;;12.69;66.71;93682.34;2025960;70;20164;-74
2023/10/02 02:06:25;;;;;;;46.53;16.83;;;;;;;12.75;66.36;93679.19;2024932;71;20172;-74
2023/10/02 02:08:53;;;;;;;48.35;16.83;;;;;;;12.67;66.76;93687.81;2025709;71;20141;-74
2023/10/02 02:11:23;;;;;;;47.45;17.08;;;;;;;12.53;67.66;93686.13;2026004;70;20157;-75
2023/10/02 02:13:53;;;;;;;49.63;17.48;;;;;;;12.59;67.01;93686.53;2025041;71;20588;-75
2023/10/02 02:16:31;;;;;;;47.40;16.80;;;;;;;12.53;67.09;93684.03;2025275;71;20606;-74
2023/10/02 02:18:58;;;;;;;47.70;16.85;;;;;;;12.56;66.27;93677.19;2025878;70;20175;-74
2023/10/02 02:21:28;;;;;;;47.60;16.67;;;;;;;12.56;66.68;93690.56;2025133;70;20189;-73
2023/10/02 02:24:03;;;;;;;50.97;17.10;;;;;;;12.44;67.02;93685.53;2028307;70;20180;-73
2023/10/02 02:26:31;;;;;;;48.10;18.02;;;;;;;12.44;66.86;93696.09;2025201;71;20185;-72
2023/10/02 02:28:57;;;;;;;50.13;17.02;;;;;;;12.41;66.49;93686.75;2022183;71;20145;-73
2023/10/02 02:31:39;;;;;;;53.15;18.33;;;;;;;12.36;66.98;93684.25;2024150;71;20160;-73
2023/10/02 02:34:14;;;;;;;48.45;17.02;;;;;;;12.13;68.34;93690.41;2025536;71;20602;-75
2023/10/02 02:36:42;;;;;;;50.88;16.38;;;;;;;12.29;67.87;93691.56;2025459;71;20161;-73
2023/10/02 02:39:17;;;;;;;50.88;16.35;;;;;;;12.29;66.95;93688.00;2026256;71;20196;-72
2023/10/02 02:42:09;;;;;;;50.00;17.40;;;;;;;12.28;68.62;93681.59;2025430;71;20177;-73
2023/10/02 02:44:47;;;;;;;46.05;16.77;;;;;;;12.31;67.55;93685.28;2025426;71;20184;-75
2023/10/02 02:47:21;;;;;;;47.75;17.30;;;;;;;12.28;67.77;93680.84;2025715;71;20160;-75
2023/10/02 02:49:52;;;;;;;48.63;16.15;;;;;;;12.27;67.61;93682.19;2026591;70;20149;-73
2023/10/02 02:52:32;;;;;;;45.45;16.60;;;;;;;12.26;67.80;93680.72;2026340;70;20153;-72
2023/10/02 02:55:04;;;;;;;45.55;16.52;;;;;;;12.26;67.45;93677.88;2026484;70;20260;-71
2023/10/02 02:57:31;;;;;;;44.33;15.60;;;;;;;12.31;67.00;93677.56;2025877;70;20553;-72
2023/10/02 03:02:52;;;;;;;50.40;17.33;;;;;;;12.14;67.84;93684.16;2025338;70;20157;-73
2023/10/02 03:05:20;;;;;;;46.78;16.02;;;;;;;12.13;67.86;93679.09;2026149;70;20189;-71
2023/10/02 03:07:56;;;;;;;45.85;16.33;;;;;;;12.17;67.75;93679.41;2026316;70;20144;-73
2023/10/02 03:10:23;;;;;;;48.42;16.38;;;;;;;12.07;67.93;93682.25;2026196;71;20133;-72
2023/10/02 03:12:51;;;;;;;44.38;15.43;;;;;;;12.08;67.66;93689.38;2026185;70;20165;-74
2023/10/02 03:15:19;;;;;;;46.28;15.70;;;;;;;12.02;68.39;93694.59;2026321;70;20249;-73
2023/10/02 03:17:46;;;;;;;44.33;15.43;;;;;;;11.99;68.40;93683.75;2026525;70;20184;-73
2023/10/02 03:20:25;;;;;;;46.35;15.82;;;;;;;12.01;68.01;93687.47;2026591;70;20153;-74
2023/10/02 03:22:57;;;;;;;48.20;16.27;;;;;;;11.99;68.36;93695.78;2026494;70;20145;-74
2023/10/02 03:25:45;;;;;;;42.67;15.43;;;;;;;12.02;68.08;93688.94;2026662;70;20257;-73
2023/10/02 03:28:27;;;;;;;46.63;16.42;;;;;;;12.00;68.02;93694.44;2026517;71;20322;-73
2023/10/02 03:30:57;;;;;;;52.20;15.75;;;;;;;11.92;68.76;93699.50;2026656;70;20170;-73
2023/10/02 03:33:26;;;;;;;44.65;15.43;;;;;;;11.96;68.16;93697.00;2026578;70;20157;-73
2023/10/02 03:36:10;;;;;;;45.17;15.15;;;;;;;11.95;68.52;93689.84;2026476;70;21602;-73
2023/10/02 03:38:48;;;;;;;43.65;15.55;;;;;;;11.86;68.52;93688.50;2026481;70;20157;-74
2023/10/02 03:41:15;;;;;;;42.80;15.02;;;;;;;11.90;69.12;93688.06;2026595;70;20157;-73
2023/10/02 03:43:44;;;;;;;41.22;15.35;;;;;;;11.93;68.58;93687.63;2026007;70;20145;-74
2023/10/02 03:46:23;;;;;;;47.50;15.10;;;;;;;11.93;68.78;93687.63;2026496;70;20285;-76
2023/10/02 03:48:58;;;;;;;44.03;14.90;;;;;;;11.95;68.29;93681.38;2026618;70;20226;-76
2023/10/02 03:51:40;;;;;;;46.47;14.75;;;;;;;12.00;67.37;93680.31;2026575;70;20276;-74
2023/10/02 03:54:17;;;;;;;40.27;14.47;;;;;;;11.97;67.23;93673.06;2026536;70;20598;-74
2023/10/02 03:56:49;;;;;;;44.13;14.25;;;;;;;11.97;67.90;93687.19;2026510;70;20249;-74
2023/10/02 03:59:25;;;;;;;40.58;14.30;;;;;;;11.93;67.61;93676.34;2025921;71;20165;-73
2023/10/02 04:01:52;;;;;;;43.92;14.57;;;;;;;11.93;68.13;93678.41;2026464;70;20269;-74
2023/10/02 04:04:21;;;;;;;45.13;15.23;;;;;;;11.87;67.90;93675.91;2026533;70;20146;-73
2023/10/02 04:06:50;;;;;;;41.40;13.02;;;;;;;11.93;68.05;93673.50;2026320;71;20648;-74
2023/10/02 04:09:25;;;;;;;39.00;14.48;;;;;;;11.90;67.22;93669.06;2026329;70;20138;-76
2023/10/02 04:11:54;;;;;;;42.28;14.45;;;;;;;11.88;67.43;93666.09;2026500;70;20145;-75
2023/10/02 04:14:38;;;;;;;43.15;14.13;;;;;;;11.83;67.55;93664.34;2026588;70;20158;-75
2023/10/02 04:19:51;;;;;;;44.70;14.63;;;;;;;11.93;67.27;93661.50;2026573;70;20272;-75
2023/10/02 04:22:25;;;;;;;37.88;14.43;;;;;;;11.88;68.24;93656.91;2026432;70;20260;-74
2023/10/02 04:24:58;;;;;;;36.58;13.40;;;;;;;11.82;67.60;93657.22;2026412;70;20594;-74
2023/10/02 04:27:43;;;;;;;37.00;13.30;;;;;;;11.83;68.38;93657.94;2026512;70;20160;-74
2023/10/02 04:32:49;;;;;;;37.15;13.45;;;;;;;11.83;67.76;93661.50;2026501;70;20632;-75
2023/10/02 04:38:07;;;;;;;31.88;11.40;;;;;;;12.06;65.90;93665.91;2026509;70;20156;-75
2023/10/02 04:40:38;;;;;;;37.35;13.18;;;;;;;12.03;66.47;93670.66;2026403;70;20153;-75
2023/10/02 04:43:19;;;;;;;39.53;12.88;;;;;;;12.02;66.62;93668.44;2026544;70;20243;-74
2023/10/02 04:45:52;;;;;;;36.60;12.00;;;;;;;11.98;67.05;93671.72;2023230;71;20161;-74
2023/10/02 04:48:38;;;;;;;34.78;12.35;;;;;;;11.82;67.23;93670.53;2023388;71;20141;-76
2023/10/02 04:51:07;;;;;;;36.10;12.02;;;;;;;11.86;66.77;93663.13;2023245;71;20276;-75
2023/10/02 04:53:35;;;;;;;39.17;12.75;;;;;;;11.90;67.22;93663.41;2025375;71;20152;-75
2023/10/02 04:56:07;;;;;;;39.13;13.25;;;;;;;11.92;66.46;93665.66;2026403;70;20184;-74
2023/10/02 04:58:39;;;;;;;38.90;13.43;;;;;;;11.90;67.26;93666.22;2026300;70;20156;-73
2023/10/02 05:03:36;;;;;;;35.58;13.00;;;;;;;11.87;67.29;93669.53;2026505;70;20232;-73
2023/10/02 05:06:03;;;;;;;39.03;13.18;;;;;;;11.81;66.12;93666.22;2026263;70;20149;-73
2023/10/02 05:08:35;;;;;;;37.60;12.95;;;;;;;11.78;67.20;93670.25;2025886;70;20172;-74
2023/10/02 05:11:06;;;;;;;39.38;13.20;;;;;;;11.77;66.77;93660.28;2026471;70;20195;-73
2023/10/02 05:13:59;;;;;;;42.83;14.32;;;;;;;11.76;67.64;93670.09;2026296;70;20145;-74
2023/10/02 05:16:33;;;;;;;31.92;11.82;;;;;;;11.70;67.80;93667.59;2026361;70;20602;-74
2023/10/02 05:19:05;;;;;;;40.35;14.93;;;;;;;11.71;67.64;93672.63;2026305;70;20144;-74
2023/10/02 05:21:49;;;;;;;39.17;13.70;;;;;;;11.76;66.81;93676.47;2026442;71;20539;-73
2023/10/02 05:24:19;;;;;;;36.60;12.95;;;;;;;11.70;67.06;93688.06;2026371;70;20606;-73
2023/10/02 05:26:46;;;;;;;39.60;13.55;;;;;;;11.51;69.03;93678.88;2026287;70;20230;-74
2023/10/02 05:31:58;;;;;;;36.30;13.40;;;;;;;11.61;68.38;93677.53;2026503;70;20141;-73
2023/10/02 05:34:24;;;;;;;34.53;12.68;;;;;;;11.61;68.86;93674.72;2027851;70;20188;-71
2023/10/02 05:37:12;;;;;;;37.10;13.25;;;;;;;11.64;68.95;93681.25;2028672;70;20518;-74
2023/10/02 05:39:41;;;;;;;37.38;13.35;;;;;;;11.62;68.59;93683.91;2026419;70;20153;-73
2023/10/02 05:42:14;;;;;;;35.70;12.65;;;;;;;11.65;68.40;93683.47;2026320;70;20205;-73
2023/10/02 05:44:42;;;;;;;42.25;13.88;;;;;;;11.69;68.05;93680.97;2026343;70;20159;-74
2023/10/02 05:47:08;;;;;;;35.25;12.82;;;;;;;11.70;68.12;93690.16;2026393;70;20157;-74
2023/10/02 05:49:48;;;;;;;36.00;13.02;;;;;;;11.69;68.35;93695.06;2025724;70;20666;-72
2023/10/02 05:52:14;;;;;;;33.22;12.65;;;;;;;11.70;68.01;93693.72;2028029;70;20159;-72
2023/10/02 05:54:47;;;;;;;33.78;12.77;;;;;;;11.65;68.62;93685.56;2026139;70;20157;-74
2023/10/02 05:57:13;;;;;;;41.15;14.43;;;;;;;11.53;69.43;93693.13;2026068;70;20160;-73
2023/10/02 05:59:48;;;;;;;37.65;13.90;;;;;;;11.71;67.82;93694.44;2026717;70;20143;-75
2023/10/02 06:02:19;;;;;;;31.20;11.65;;;;;;;11.76;67.86;93687.03;2026210;71;20590;-75
2023/10/02 06:04:52;;;;;;;30.48;9.40;;;;;;;11.81;67.69;93689.53;2026172;71;20622;-75
2023/10/02 06:07:43;;;;;;;25.50;8.55;;;;;;;12.00;66.37;93688.78;2025908;71;20617;-73
2023/10/02 06:10:46;;;;;;;26.55;9.38;;;;;;;12.05;66.25;93684.16;2025939;70;20180;-72
2023/10/02 06:13:05;;;;;;;28.33;9.75;;;;;;;12.06;66.29;93688.50;2024756;71;20725;-76
2023/10/02 06:15:46;;;;;;;27.27;9.43;;;;;;;12.01;66.92;93698.03;2025955;70;20244;-75
2023/10/02 06:18:34;;;;;;;29.20;9.90;;;;;;;12.17;65.98;93699.91;2024229;71;20169;-73
2023/10/02 06:21:03;;;;;;;24.00;9.57;;;;;;;12.30;66.77;93695.84;2022304;71;20199;-76
2023/10/02 06:23:37;;;;;;;28.48;9.95;;;;;;;12.26;67.30;93703.31;2022605;71;20149;-77
2023/10/02 06:26:11;;;;;;;28.08;9.35;;;;;;;12.29;65.57;93708.50;2022993;71;20156;-76
2023/10/02 06:28:38;;;;;;;28.63;10.27;;;;;;;12.24;66.70;93708.81;2022955;71;20495;-76
2023/10/02 06:31:06;;;;;;;25.85;9.02;;;;;;;12.32;66.73;93709.38;2022965;71;20175;-75
2023/10/02 06:33:36;;;;;;;27.55;9.00;;;;;;;12.27;67.02;93713.97;2023141;70;20149;-78
2023/10/02 06:36:07;;;;;;;25.55;9.85;;;;;;;12.47;67.18;93709.03;2022937;71;20141;-76
2023/10/02 06:38:33;;;;;;;27.67;9.80;;;;;;;12.43;66.74;93703.84;2023512;71;20153;-74
2023/10/02 06:41:07;;;;;;;24.77;8.60;;;;;;;12.49;66.21;93708.44;2025717;71;20156;-72
2023/10/02 06:43:33;;;;;;;26.30;9.10;;;;;;;12.48;66.96;93710.50;2025241;71;20161;-73
2023/10/02 06:46:09;;;;;;;27.40;9.20;;;;;;;12.53;65.82;93714.38;2025690;70;20142;-74
2023/10/02 06:48:43;;;;;;;28.77;9.77;;;;;;;12.41;66.14;93705.75;2025640;71;20153;-74
2023/10/02 06:51:13;;;;;;;25.73;9.40;;;;;;;12.50;67.33;93709.91;2026413;70;20160;-74
2023/10/02 06:53:40;;;;;;;29.17;9.48;;;;;;;12.48;67.09;93718.97;2025972;70;20149;-75
2023/10/02 06:56:10;;;;;;;26.23;9.90;;;;;;;12.47;66.71;93720.34;2025577;71;20180;-74
2023/10/02 06:58:49;;;;;;;27.23;9.68;;;;;;;12.47;67.13;93714.69;2026188;70;20513;-73
2023/10/02 07:01:18;;;;;;;26.13;9.23;;;;;;;12.40;67.15;93721.97;2026061;70;20672;-74
2023/10/02 07:03:56;;;;;;;29.88;13.65;;;;;;;12.49;66.79;93716.91;2025068;71;20168;-75
2023/10/02 07:06:26;;;;;;;26.35;11.15;;;;;;;12.44;67.46;93716.63;2025937;71;20149;-74
2023/10/02 07:09:12;;;;;;;41.65;18.45;;;;;;;12.50;66.80;93709.91;2026425;70;20136;-72
2023/10/02 07:11:47;;;;;;;80.97;40.15;;;;;;;12.46;66.83;93713.94;2026005;70;20200;-73
2023/10/02 07:14:14;;;;;;;77.40;40.80;;;;;;;12.43;67.66;93717.22;2026456;70;20232;-74
2023/10/02 07:16:41;;;;;;;77.15;39.47;;;;;;;12.44;67.38;93721.53;2026232;71;20153;-74
2023/10/02 07:19:07;;;;;;;60.42;29.58;;;;;;;12.48;67.86;93718.97;2025641;70;20163;-74
2023/10/02 07:21:35;;;;;;;60.38;30.13;;;;;;;12.51;67.29;93714.97;2026147;70;20145;-75
2023/10/02 07:24:21;;;;;;;60.40;31.00;;;;;;;12.61;66.70;93714.94;2026366;70;20267;-77
2023/10/02 07:26:51;;;;;;;65.18;32.03;;;;;;;12.62;66.72;93716.41;2025901;71;20297;-75
2023/10/02 07:29:19;;;;;;;58.53;28.67;;;;;;;12.63;64.96;93707.31;2026101;70;20281;-75
2023/10/02 07:31:45;;;;;;;55.03;27.30;;;;;;;12.67;67.40;93716.06;2025843;70;20184;-75
2023/10/02 07:34:12;;;;;;;45.85;23.85;;;;;;;12.57;68.11;93712.56;2026013;70;20157;-75
2023/10/02 07:36:47;;;;;;;46.75;21.23;;;;;;;12.60;66.92;93710.59;2026439;70;20666;-75
2023/10/02 07:39:35;;;;;;;47.80;22.98;;;;;;;12.63;67.79;93710.16;2025818;70;20157;-77
2023/10/02 07:42:04;;;;;;;46.00;20.67;;;;;;;12.75;67.81;93703.88;2026351;70;20305;-75
2023/10/02 07:44:39;;;;;;;41.17;18.67;;;;;;;13.16;68.11;93713.03;2026286;70;20173;-75
2023/10/02 07:47:19;;;;;;;27.10;12.57;;;;;;;13.72;67.52;93704.75;2026464;70;20224;-76
2023/10/02 07:49:55;;;;;;;29.65;14.30;;;;;;;13.91;66.58;93705.91;2026500;70;20625;-75
2023/10/02 07:52:29;;;;;;;32.85;13.45;;;;;;;14.41;66.56;93710.50;2026576;70;20164;-77
2023/10/02 07:54:58;;;;;;;26.10;10.10;;;;;;;14.86;59.83;93707.63;2026681;70;20196;-77
2023/10/02 07:57:32;;;;;;;23.58;8.35;;;;;;;15.23;63.99;93702.06;2026326;70;20157;-74
2023/10/02 08:03:02;;;;;;;18.95;7.90;;;;;;;16.10;61.73;93714.91;2022611;71;20137;-78
2023/10/02 08:05:32;;;;;;;20.33;7.55;;;;;;;16.44;60.35;93704.72;2026351;71;20168;-77
2023/10/02 08:08:10;;;;;;;18.90;8.38;;;;;;;16.71;59.44;93709.75;2025791;70;20133;-76
2023/10/02 08:10:49;;;;;;;21.42;6.95;;;;;;;17.04;57.59;93697.28;2026489;71;20586;-75
2023/10/02 08:13:35;;;;;;;19.15;7.03;;;;;;;17.17;57.33;93695.81;2026325;70;20279;-77
2023/10/02 08:16:12;;;;;;;18.05;7.28;;;;;;;17.75;56.39;93691.69;2026652;70;20157;-77
2023/10/02 08:21:34;;;;;;;18.33;7.40;;;;;;;18.37;55.61;93684.75;2024465;71;20160;-77
2023/10/02 08:24:03;;;;;;;20.48;7.10;;;;;;;18.79;53.24;93690.97;2026534;70;20152;-77
2023/10/02 08:26:40;;;;;;;15.30;6.43;;;;;;;19.02;52.82;93675.63;2026183;70;20168;-76
2023/10/02 08:29:09;;;;;;;14.38;6.45;;;;;;;18.86;51.95;93674.88;2026489;70;20204;-78
2023/10/02 08:31:42;;;;;;;13.52;5.63;;;;;;;19.17;50.56;93674.84;2026134;70;20250;-76
2023/10/02 08:34:13;;;;;;;16.15;5.75;;;;;;;19.27;50.23;93680.28;2026078;70;20244;-74
2023/10/02 08:36:41;;;;;;;14.75;5.63;;;;;;;19.81;50.45;93669.75;2026496;71;20149;-75
2023/10/02 08:39:08;;;;;;;13.35;5.70;;;;;;;20.16;48.44;93674.03;2026367;70;20156;-73
2023/10/02 08:41:43;;;;;;;14.30;5.70;;;;;;;19.89;48.21;93670.13;2026430;70;20602;-74
2023/10/02 08:44:22;;;;;;;12.15;5.47;;;;;;;20.58;46.74;93665.72;2024185;71;20149;-75
2023/10/02 08:46:48;;;;;;;13.85;5.70;;;;;;;20.83;45.86;93676.72;2026376;70;20160;-75
2023/10/02 08:49:14;;;;;;;12.32;5.75;;;;;;;20.71;46.01;93662.69;2026424;70;20149;-78
2023/10/02 08:51:48;;;;;;;12.35;5.32;;;;;;;21.32;45.77;93661.38;2026414;70;20152;-76
2023/10/02 08:54:15;;;;;;;13.73;5.70;;;;;;;21.63;44.76;93662.47;2025714;70;20157;-76
2023/10/02 08:56:44;;;;;;;14.48;5.47;;;;;;;21.82;46.52;93668.16;2025327;70;20159;-73
2023/10/02 08:59:17;;;;;;;11.88;5.70;;;;;;;21.72;44.53;93655.63;2025501;70;20254;-73
2023/10/02 09:01:47;;;;;;;14.52;5.70;;;;;;;21.70;44.35;93655.53;2025899;71;20594;-75
2023/10/02 09:04:28;;;;;;;13.93;5.75;;;;;;;22.43;44.23;93660.13;2025603;70;20161;-73
2023/10/02 09:09:45;;;;;;;12.20;5.32;;;;;;;22.71;41.29;93649.50;2026200;71;20157;-73
2023/10/02 09:12:15;;;;;;;12.30;5.47;;;;;;;23.22;41.40;93647.44;2026622;70;20150;-72
2023/10/02 09:14:41;;;;;;;14.15;5.25;;;;;;;23.82;41.84;93641.91;2026588;70;20136;-73
2023/10/02 09:17:16;;;;;;;13.63;5.38;;;;;;;23.89;42.88;93639.94;2023370;71;20161;-76
2023/10/02 09:20:03;;;;;;;14.50;5.60;;;;;;;23.70;43.05;93639.47;2026548;70;20136;-80
2023/10/02 09:22:34;;;;;;;13.32;5.35;;;;;;;24.30;41.92;93633.81;2025953;71;20157;-79
2023/10/02 09:25:26;;;;;;;10.02;5.18;;;;;;;24.82;40.16;93630.69;2026504;70;20149;-78
2023/10/02 09:27:57;;;;;;;13.68;5.85;;;;;;;24.95;39.04;93634.59;2025926;71;20133;-73
2023/10/02 09:33:07;;;;;;;14.98;7.63;;;;;;;24.93;34.64;93625.19;2026471;70;20325;-80
2023/10/02 09:38:04;;;;;;;19.83;7.72;;;;;;;26.07;36.48;93616.66;2026573;70;20226;-74
2023/10/02 09:43:25;;;;;;;19.95;8.88;;;;;;;26.53;33.89;93615.97;2026280;71;20129;-79
2023/10/02 09:45:56;;;;;;;16.98;8.15;;;;;;;26.94;33.27;93610.06;2026078;70;20121;-80
2023/10/02 09:48:46;;;;;;;18.88;8.68;;;;;;;26.97;31.78;93602.88;2026153;70;20149;-75
2023/10/02 09:54:17;;;;;;;17.75;8.13;;;;;;;28.35;32.32;93597.94;2026407;70;20145;-75
2023/10/02 09:57:16;;;;;;;16.50;7.88;;;;;;;28.98;30.60;93603.50;2026232;70;20181;-74
2023/10/02 09:59:54;;;;;;;17.45;8.20;;;;;;;28.94;32.53;93601.25;2025695;71;20153;-72
2023/10/02 10:11:10;;;;;;;17.38;8.88;;;;;;;27.82;30.78;93580.09;2026202;70;20164;-71
2023/10/02 10:13:50;;;;;;;16.38;8.10;;;;;;;29.75;29.35;93580.63;2022039;71;20714;-76
2023/10/02 10:16:23;;;;;;;18.05;7.93;;;;;;;30.51;30.05;93577.81;2022380;71;20577;-75
2023/10/02 10:21:58;;;;;;;14.77;7.93;;;;;;;32.14;28.68;93571.50;2022331;71;20185;-77
2023/10/02 10:25:22;;;;;;;15.23;7.78;;;;;;;32.52;27.71;93575.59;2022361;71;20161;-77
2023/10/02 10:27:59;;;;;;;15.27;7.97;;;;;;;31.74;28.26;93561.50;2021955;71;20662;-82
2023/10/02 10:30:25;;;;;;;15.75;8.48;;;;;;;33.16;27.64;93561.16;2022265;71;20229;-77
2023/10/02 10:36:18;;;;;;;15.40;7.88;;;;;;;33.52;26.97;93554.19;2019515;71;20141;-76
2023/10/02 10:38:41;;;;;;;16.77;8.40;;;;;;;34.95;26.00;93554.97;2021652;71;20153;-77
2023/10/02 10:41:14;;;;;;;18.33;8.80;;;;;;;34.77;27.25;93553.09;2022064;71;20145;-76
2023/10/02 10:43:56;;;;;;;16.98;8.30;;;;;;;36.19;25.31;93549.56;2019125;71;20558;-77
2023/10/02 10:46:28;;;;;;;19.90;8.88;;;;;;;37.05;25.01;93550.44;2018635;71;20639;-79
2023/10/02 10:49:08;;;;;;;13.45;7.40;;;;;;;34.73;25.04;93542.22;2023493;70;20148;-76
2023/10/02 10:51:56;;;;;;;15.73;8.43;;;;;;;36.95;23.96;93547.78;2021828;71;20237;-78
2023/10/02 10:54:30;;;;;;;13.88;7.55;;;;;;;36.56;24.27;93545.78;2021678;71;20752;-77
2023/10/02 10:57:19;;;;;;;14.30;7.38;;;;;;;38.78;22.60;93536.53;2015351;71;20157;-78
2023/10/02 10:59:45;;;;;;;15.93;7.82;;;;;;;39.39;22.24;93539.59;2015199;71;20154;-78
2023/10/02 11:02:17;;;;;;;14.48;7.80;;;;;;;39.70;20.86;93536.28;2015626;71;20243;-77
2023/10/02 11:04:47;;;;;;;13.63;7.78;;;;;;;37.89;22.21;93531.97;2016272;71;20156;-78
2023/10/02 11:07:25;;;;;;;13.07;7.25;;;;;;;40.43;21.25;93529.81;2015176;71;20151;-78
2023/10/02 11:10:19;;;;;;;11.77;7.72;;;;;;;40.79;20.76;93521.00;2015678;71;20169;-79
2023/10/02 11:12:57;;;;;;;13.50;8.05;;;;;;;42.66;20.31;93517.06;2015889;71;20166;-77
2023/10/02 11:18:20;;;;;;;13.82;7.97;;;;;;;44.09;18.61;93523.00;2014473;71;20153;-78
2023/10/02 11:20:54;;;;;;;14.55;8.27;;;;;;;44.44;18.74;93514.44;2018925;71;20189;-77
2023/10/02 11:23:40;;;;;;;12.52;7.90;;;;;;;43.70;18.19;93499.91;2021112;71;20116;-76
2023/10/02 11:26:13;;;;;;;15.05;8.30;;;;;;;43.55;18.30;93500.69;2019664;71;20737;-77
2023/10/02 11:28:49;;;;;;;13.43;8.90;;;;;;;45.02;18.55;93506.69;2025139;71;20245;-77
2023/10/02 11:31:32;;;;;;;12.23;7.97;;;;;;;45.97;16.86;93503.19;2026700;70;20177;-77
2023/10/02 11:34:04;;;;;;;12.55;7.97;;;;;;;44.83;17.15;93498.13;2026475;70;20145;-77
2023/10/02 11:36:35;;;;;;;14.70;8.32;;;;;;;46.29;17.63;93488.50;2028345;70;20149;-78
2023/10/02 11:39:16;;;;;;;13.00;8.27;;;;;;;46.94;16.79;93494.78;2026200;70;20152;-79
2023/10/02 11:41:44;;;;;;;16.13;8.70;;;;;;;46.00;15.73;93482.91;2029295;70;20225;-76
2023/10/02 11:44:12;;;;;;;13.23;8.18;;;;;;;49.18;15.13;93487.84;2029081;70;20208;-80
2023/10/02 11:46:43;;;;;;;12.18;8.40;;;;;;;47.96;15.84;93481.81;2028790;70;20524;-79
2023/10/02 11:49:14;;;;;;;12.13;8.30;;;;;;;49.16;14.04;93473.03;2029415;70;20149;-79
2023/10/02 11:51:40;;;;;;;13.65;8.98;;;;;;;46.73;15.76;93454.38;2029664;70;20152;-79
2023/10/02 11:54:09;;;;;;;14.00;8.38;;;;;;;49.24;14.51;93459.75;2029446;70;20145;-80
2023/10/02 11:56:35;;;;;;;12.05;8.07;;;;;;;52.21;13.36;93460.88;2029560;70;20494;-79
2023/10/02 11:59:02;;;;;;;13.18;9.02;;;;;;;49.54;13.36;93448.44;2029306;70;20152;-80
2023/10/02 12:01:29;;;;;;;14.50;9.25;;;;;;;47.19;14.61;93434.91;2029152;70;20148;-79
2023/10/02 12:03:59;;;;;;;15.75;9.07;;;;;;;46.33;16.18;93428.00;2029694;70;20149;-79
2023/10/02 12:06:28;;;;;;;14.15;9.10;;;;;;;48.69;14.63;93419.06;2028540;70;20172;-78
2023/10/02 12:08:56;;;;;;;15.50;9.25;;;;;;;50.01;14.13;93423.09;2029477;70;20148;-77
2023/10/02 12:11:26;;;;;;;14.85;9.90;;;;;;;51.37;14.28;93432.09;2028898;70;20148;-77
2023/10/02 12:13:56;;;;;;;17.15;9.88;;;;;;;49.64;13.32;93422.28;2029473;70;20160;-79
2023/10/02 12:16:27;;;;;;;16.33;10.00;;;;;;;53.37;12.92;93428.53;2029503;70;20152;-78
2023/10/02 12:18:53;;;;;;;17.35;10.02;;;;;;;53.05;12.68;93427.66;2026283;70;20148;-78
2023/10/02 12:21:21;;;;;;;15.93;9.90;;;;;;;53.68;12.47;93423.38;2028978;70;20160;-77
2023/10/02 12:23:49;;;;;;;16.70;10.77;;;;;;;50.04;13.62;93398.13;2028988;70;20152;-78
2023/10/02 12:26:17;;;;;;;14.32;9.63;;;;;;;51.84;13.76;93404.03;2026113;70;20188;-77
2023/10/02 12:28:43;;;;;;;16.25;10.13;;;;;;;52.18;13.46;93412.25;2025413;70;20157;-78
2023/10/02 12:31:19;;;;;;;15.13;10.10;;;;;;;52.15;13.31;93399.03;2026322;70;20197;-79
2023/10/02 12:33:52;;;;;;;14.07;9.35;;;;;;;52.61;14.06;93392.72;2021883;71;20238;-78
2023/10/02 12:36:22;;;;;;;15.35;10.00;;;;;;;52.92;12.95;93399.63;2025691;71;20149;-79
2023/10/02 12:38:50;;;;;;;13.77;9.38;;;;;;;53.03;13.54;93400.81;2025744;70;20209;-79
2023/10/02 12:41:20;;;;;;;13.50;9.32;;;;;;;52.96;13.35;93393.94;2025924;70;20578;-78
2023/10/02 12:43:55;;;;;;;15.57;9.90;;;;;;;52.87;12.45;93392.59;2025293;71;20562;-78
2023/10/02 12:46:27;;;;;;;16.35;9.57;;;;;;;53.47;13.00;93379.44;2025985;70;20155;-78
2023/10/02 12:48:57;;;;;;;15.05;9.70;;;;;;;53.97;12.29;93379.91;2026140;70;20153;-79
2023/10/02 12:51:25;;;;;;;17.27;10.85;;;;;;;53.76;12.44;93368.41;2026056;70;20660;-78
2023/10/02 12:53:51;;;;;;;14.30;9.77;;;;;;;54.33;12.12;93369.59;2025979;70;20161;-78
2023/10/02 12:56:22;;;;;;;16.40;11.07;;;;;;;55.06;12.76;93363.84;2026290;70;20636;-78